sensor_id;sensor_type;location;lat;lon;timestamp;P1;durP1;ratioP1;P2;durP2;ratioP2
22531;SDS011;11432;46.924;7.114;2024-01-25T00:00:19;0.70;;;0.30;;
22531;SDS011;11432;46.924;7.114;2024-01-25T00:02:44;1.50;;;0.40;;
22531;SDS011;11432;46.924;7.114;2024-01-25T00:05:10;0.40;;;0.30;;
22531;SDS011;11432;46.924;7.114;2024-01-25T00:07:44;0.65;;;0.25;;
22531;SDS011;11432;46.924;7.114;2024-01-25T00:10:10;0.60;;;0.30;;
22531;SDS011;11432;46.924;7.114;2024-01-25T00:12:36;0.63;;;0.20;;
22531;SDS011;11432;46.924;7.114;2024-01-25T00:15:02;0.55;;;0.30;;
22531;SDS011;11432;46.924;7.114;2024-01-25T00:17:28;0.95;;;0.40;;
22531;SDS011;11432;46.924;7.114;2024-01-25T00:19:53;0.35;;;0.30;;
22531;SDS011;11432;46.924;7.114;2024-01-25T00:22:19;0.60;;;0.30;;
22531;SDS011;11432;46.924;7.114;2024-01-25T00:24:44;0.80;;;0.40;;
22531;SDS011;11432;46.924;7.114;2024-01-25T00:27:10;0.55;;;0.30;;
22531;SDS011;11432;46.924;7.114;2024-01-25T00:29:36;0.40;;;0.30;;
22531;SDS011;11432;46.924;7.114;2024-01-25T00:32:02;1.20;;;0.40;;
22531;SDS011;11432;46.924;7.114;2024-01-25T00:34:28;2.13;;;0.38;;
22531;SDS011;11432;46.924;7.114;2024-01-25T00:36:53;0.45;;;0.20;;
22531;SDS011;11432;46.924;7.114;2024-01-25T00:39:19;1.13;;;0.30;;
22531;SDS011;11432;46.924;7.114;2024-01-25T00:41:45;0.60;;;0.30;;
22531;SDS011;11432;46.924;7.114;2024-01-25T00:44:15;1.13;;;0.30;;
22531;SDS011;11432;46.924;7.114;2024-01-25T00:46:41;0.52;;;0.35;;
22531;SDS011;11432;46.924;7.114;2024-01-25T00:49:07;0.95;;;0.30;;
22531;SDS011;11432;46.924;7.114;2024-01-25T00:51:33;0.43;;;0.30;;
22531;SDS011;11432;46.924;7.114;2024-01-25T00:54:01;1.00;;;0.40;;
22531;SDS011;11432;46.924;7.114;2024-01-25T00:56:27;0.40;;;0.20;;
22531;SDS011;11432;46.924;7.114;2024-01-25T00:58:53;1.05;;;0.30;;
22531;SDS011;11432;46.924;7.114;2024-01-25T01:01:19;0.63;;;0.22;;
22531;SDS011;11432;46.924;7.114;2024-01-25T01:03:47;0.87;;;0.30;;
22531;SDS011;11432;46.924;7.114;2024-01-25T01:06:18;1.52;;;0.40;;
22531;SDS011;11432;46.924;7.114;2024-01-25T01:08:46;0.60;;;0.32;;
22531;SDS011;11432;46.924;7.114;2024-01-25T01:11:12;1.80;;;0.30;;
22531;SDS011;11432;46.924;7.114;2024-01-25T01:13:38;0.95;;;0.40;;
22531;SDS011;11432;46.924;7.114;2024-01-25T01:16:03;1.42;;;0.40;;
22531;SDS011;11432;46.924;7.114;2024-01-25T01:18:29;0.45;;;0.30;;
22531;SDS011;11432;46.924;7.114;2024-01-25T01:20:55;1.58;;;0.40;;
22531;SDS011;11432;46.924;7.114;2024-01-25T01:23:20;0.77;;;0.40;;
22531;SDS011;11432;46.924;7.114;2024-01-25T01:25:46;0.77;;;0.40;;
22531;SDS011;11432;46.924;7.114;2024-01-25T01:28:12;0.60;;;0.40;;
22531;SDS011;11432;46.924;7.114;2024-01-25T01:30:37;0.60;;;0.30;;
22531;SDS011;11432;46.924;7.114;2024-01-25T01:33:06;1.13;;;0.40;;
22531;SDS011;11432;46.924;7.114;2024-01-25T01:35:35;1.35;;;0.40;;
22531;SDS011;11432;46.924;7.114;2024-01-25T01:38:01;0.70;;;0.50;;
22531;SDS011;11432;46.924;7.114;2024-01-25T01:40:26;1.17;;;0.32;;
22531;SDS011;11432;46.924;7.114;2024-01-25T01:42:58;0.82;;;0.30;;
22531;SDS011;11432;46.924;7.114;2024-01-25T01:45:26;0.70;;;0.40;;
22531;SDS011;11432;46.924;7.114;2024-01-25T01:47:53;0.93;;;0.40;;
22531;SDS011;11432;46.924;7.114;2024-01-25T01:50:19;0.50;;;0.30;;
22531;SDS011;11432;46.924;7.114;2024-01-25T01:52:45;0.60;;;0.38;;
22531;SDS011;11432;46.924;7.114;2024-01-25T01:55:12;0.75;;;0.30;;
22531;SDS011;11432;46.924;7.114;2024-01-25T01:57:38;0.60;;;0.30;;
22531;SDS011;11432;46.924;7.114;2024-01-25T02:00:04;0.77;;;0.40;;
22531;SDS011;11432;46.924;7.114;2024-01-25T02:04:59;0.70;;;0.28;;
22531;SDS011;11432;46.924;7.114;2024-01-25T02:07:24;0.40;;;0.20;;
22531;SDS011;11432;46.924;7.114;2024-01-25T02:09:50;0.43;;;0.30;;
22531;SDS011;11432;46.924;7.114;2024-01-25T02:12:16;0.28;;;0.20;;
22531;SDS011;11432;46.924;7.114;2024-01-25T02:14:42;0.45;;;0.30;;
22531;SDS011;11432;46.924;7.114;2024-01-25T02:17:08;1.05;;;0.40;;
22531;SDS011;11432;46.924;7.114;2024-01-25T02:19:33;0.50;;;0.30;;
22531;SDS011;11432;46.924;7.114;2024-01-25T02:21:59;0.82;;;0.30;;
22531;SDS011;11432;46.924;7.114;2024-01-25T02:24:25;0.52;;;0.30;;
22531;SDS011;11432;46.924;7.114;2024-01-25T02:26:51;0.82;;;0.38;;
22531;SDS011;11432;46.924;7.114;2024-01-25T02:29:16;0.50;;;0.30;;
22531;SDS011;11432;46.924;7.114;2024-01-25T02:31:42;0.30;;;0.30;;
22531;SDS011;11432;46.924;7.114;2024-01-25T02:34:07;0.40;;;0.17;;
22531;SDS011;11432;46.924;7.114;2024-01-25T02:36:33;0.20;;;0.20;;
22531;SDS011;11432;46.924;7.114;2024-01-25T02:38:59;0.52;;;0.20;;
22531;SDS011;11432;46.924;7.114;2024-01-25T02:41:24;0.80;;;0.30;;
22531;SDS011;11432;46.924;7.114;2024-01-25T02:43:50;0.77;;;0.47;;
22531;SDS011;11432;46.924;7.114;2024-01-25T02:46:15;2.05;;;0.30;;
22531;SDS011;11432;46.924;7.114;2024-01-25T02:48:41;0.30;;;0.20;;
22531;SDS011;11432;46.924;7.114;2024-01-25T02:51:06;0.50;;;0.38;;
22531;SDS011;11432;46.924;7.114;2024-01-25T02:53:32;0.82;;;0.30;;
22531;SDS011;11432;46.924;7.114;2024-01-25T02:55:57;0.30;;;0.20;;
22531;SDS011;11432;46.924;7.114;2024-01-25T02:58:23;2.22;;;0.50;;
22531;SDS011;11432;46.924;7.114;2024-01-25T03:00:49;0.95;;;0.30;;
22531;SDS011;11432;46.924;7.114;2024-01-25T03:03:14;0.73;;;0.30;;
22531;SDS011;11432;46.924;7.114;2024-01-25T03:05:40;0.50;;;0.30;;
22531;SDS011;11432;46.924;7.114;2024-01-25T03:08:05;0.63;;;0.30;;
22531;SDS011;11432;46.924;7.114;2024-01-25T03:10:31;0.88;;;0.40;;
22531;SDS011;11432;46.924;7.114;2024-01-25T03:12:57;1.45;;;0.28;;
22531;SDS011;11432;46.924;7.114;2024-01-25T03:15:22;1.13;;;0.38;;
22531;SDS011;11432;46.924;7.114;2024-01-25T03:17:48;1.30;;;0.40;;
22531;SDS011;11432;46.924;7.114;2024-01-25T03:20:13;0.88;;;0.30;;
22531;SDS011;11432;46.924;7.114;2024-01-25T03:22:39;1.15;;;0.30;;
22531;SDS011;11432;46.924;7.114;2024-01-25T03:25:05;0.50;;;0.40;;
22531;SDS011;11432;46.924;7.114;2024-01-25T03:27:30;0.32;;;0.32;;
22531;SDS011;11432;46.924;7.114;2024-01-25T03:29:56;0.32;;;0.22;;
22531;SDS011;11432;46.924;7.114;2024-01-25T03:32:22;0.35;;;0.25;;
22531;SDS011;11432;46.924;7.114;2024-01-25T03:34:47;1.38;;;0.30;;
22531;SDS011;11432;46.924;7.114;2024-01-25T03:37:13;0.30;;;0.22;;
22531;SDS011;11432;46.924;7.114;2024-01-25T03:39:38;0.52;;;0.30;;
22531;SDS011;11432;46.924;7.114;2024-01-25T03:42:04;1.15;;;0.30;;
22531;SDS011;11432;46.924;7.114;2024-01-25T03:44:29;0.10;;;0.08;;
22531;SDS011;11432;46.924;7.114;2024-01-25T03:46:55;0.32;;;0.17;;
22531;SDS011;11432;46.924;7.114;2024-01-25T03:49:21;0.47;;;0.22;;
22531;SDS011;11432;46.924;7.114;2024-01-25T03:51:48;0.10;;;0.10;;
22531;SDS011;11432;46.924;7.114;2024-01-25T03:54:14;0.22;;;0.17;;
22531;SDS011;11432;46.924;7.114;2024-01-25T03:56:39;0.20;;;0.10;;
22531;SDS011;11432;46.924;7.114;2024-01-25T03:59:05;0.13;;;0.10;;
22531;SDS011;11432;46.924;7.114;2024-01-25T04:01:40;0.65;;;0.20;;
22531;SDS011;11432;46.924;7.114;2024-01-25T04:04:07;0.13;;;0.10;;
22531;SDS011;11432;46.924;7.114;2024-01-25T04:06:34;0.57;;;0.20;;
22531;SDS011;11432;46.924;7.114;2024-01-25T04:08:59;0.20;;;0.13;;
22531;SDS011;11432;46.924;7.114;2024-01-25T04:11:25;0.38;;;0.15;;
22531;SDS011;11432;46.924;7.114;2024-01-25T04:13:50;1.88;;;0.22;;
22531;SDS011;11432;46.924;7.114;2024-01-25T04:16:16;0.20;;;0.13;;
22531;SDS011;11432;46.924;7.114;2024-01-25T04:18:42;0.60;;;0.30;;
22531;SDS011;11432;46.924;7.114;2024-01-25T04:21:07;0.32;;;0.10;;
22531;SDS011;11432;46.924;7.114;2024-01-25T04:23:34;1.35;;;0.20;;
22531;SDS011;11432;46.924;7.114;2024-01-25T04:26:00;0.50;;;0.20;;
22531;SDS011;11432;46.924;7.114;2024-01-25T04:28:25;0.20;;;0.20;;
22531;SDS011;11432;46.924;7.114;2024-01-25T04:30:51;0.20;;;0.10;;
22531;SDS011;11432;46.924;7.114;2024-01-25T04:33:16;0.43;;;0.20;;
22531;SDS011;11432;46.924;7.114;2024-01-25T04:35:43;0.10;;;0.10;;
22531;SDS011;11432;46.924;7.114;2024-01-25T04:38:08;1.58;;;0.70;;
22531;SDS011;11432;46.924;7.114;2024-01-25T04:40:34;0.30;;;0.20;;
22531;SDS011;11432;46.924;7.114;2024-01-25T04:42:59;0.40;;;0.30;;
22531;SDS011;11432;46.924;7.114;2024-01-25T04:45:25;0.10;;;0.10;;
22531;SDS011;11432;46.924;7.114;2024-01-25T04:47:51;0.88;;;0.20;;
22531;SDS011;11432;46.924;7.114;2024-01-25T04:50:16;0.10;;;0.10;;
22531;SDS011;11432;46.924;7.114;2024-01-25T04:52:42;0.08;;;0.08;;
22531;SDS011;11432;46.924;7.114;2024-01-25T04:55:08;0.03;;;0.00;;
22531;SDS011;11432;46.924;7.114;2024-01-25T04:57:33;0.70;;;0.10;;
22531;SDS011;11432;46.924;7.114;2024-01-25T04:59:59;0.10;;;0.10;;
22531;SDS011;11432;46.924;7.114;2024-01-25T05:02:24;0.22;;;0.10;;
22531;SDS011;11432;46.924;7.114;2024-01-25T05:04:50;0.20;;;0.10;;
22531;SDS011;11432;46.924;7.114;2024-01-25T05:07:16;0.40;;;0.10;;
22531;SDS011;11432;46.924;7.114;2024-01-25T05:09:41;0.17;;;0.10;;
22531;SDS011;11432;46.924;7.114;2024-01-25T05:12:07;1.50;;;0.20;;
22531;SDS011;11432;46.924;7.114;2024-01-25T05:14:32;0.10;;;0.10;;
22531;SDS011;11432;46.924;7.114;2024-01-25T05:16:58;0.25;;;0.10;;
22531;SDS011;11432;46.924;7.114;2024-01-25T05:19:24;0.28;;;0.20;;
22531;SDS011;11432;46.924;7.114;2024-01-25T05:21:50;0.60;;;0.13;;
22531;SDS011;11432;46.924;7.114;2024-01-25T05:24:16;2.17;;;0.15;;
22531;SDS011;11432;46.924;7.114;2024-01-25T05:26:41;0.52;;;0.20;;
22531;SDS011;11432;46.924;7.114;2024-01-25T05:29:07;0.63;;;0.03;;
22531;SDS011;11432;46.924;7.114;2024-01-25T05:31:32;0.35;;;0.15;;
22531;SDS011;11432;46.924;7.114;2024-01-25T05:33:58;0.10;;;0.10;;
22531;SDS011;11432;46.924;7.114;2024-01-25T05:36:24;0.40;;;0.10;;
22531;SDS011;11432;46.924;7.114;2024-01-25T05:38:49;0.40;;;0.20;;
22531;SDS011;11432;46.924;7.114;2024-01-25T05:41:15;1.17;;;0.20;;
22531;SDS011;11432;46.924;7.114;2024-01-25T05:43:40;0.30;;;0.20;;
22531;SDS011;11432;46.924;7.114;2024-01-25T05:46:06;0.15;;;0.10;;
22531;SDS011;11432;46.924;7.114;2024-01-25T05:48:31;0.20;;;0.10;;
22531;SDS011;11432;46.924;7.114;2024-01-25T05:50:57;1.83;;;0.25;;
22531;SDS011;11432;46.924;7.114;2024-01-25T05:53:23;1.75;;;0.20;;
22531;SDS011;11432;46.924;7.114;2024-01-25T05:55:48;0.45;;;0.13;;
22531;SDS011;11432;46.924;7.114;2024-01-25T05:58:14;0.25;;;0.20;;
22531;SDS011;11432;46.924;7.114;2024-01-25T06:00:39;0.30;;;0.10;;
22531;SDS011;11432;46.924;7.114;2024-01-25T06:03:05;1.10;;;0.30;;
22531;SDS011;11432;46.924;7.114;2024-01-25T06:05:30;0.60;;;0.32;;
22531;SDS011;11432;46.924;7.114;2024-01-25T06:07:56;1.50;;;0.60;;
22531;SDS011;11432;46.924;7.114;2024-01-25T06:10:22;0.93;;;0.50;;
22531;SDS011;11432;46.924;7.114;2024-01-25T06:12:47;1.15;;;0.50;;
22531;SDS011;11432;46.924;7.114;2024-01-25T06:15:13;0.50;;;0.35;;
22531;SDS011;11432;46.924;7.114;2024-01-25T06:17:38;1.75;;;0.75;;
22531;SDS011;11432;46.924;7.114;2024-01-25T06:20:04;3.03;;;0.80;;
22531;SDS011;11432;46.924;7.114;2024-01-25T06:22:30;1.42;;;0.60;;
22531;SDS011;11432;46.924;7.114;2024-01-25T06:24:55;1.33;;;0.40;;
22531;SDS011;11432;46.924;7.114;2024-01-25T06:27:21;0.60;;;0.40;;
22531;SDS011;11432;46.924;7.114;2024-01-25T06:29:46;0.85;;;0.55;;
22531;SDS011;11432;46.924;7.114;2024-01-25T06:32:12;0.82;;;0.50;;
22531;SDS011;11432;46.924;7.114;2024-01-25T06:34:38;2.50;;;0.85;;
22531;SDS011;11432;46.924;7.114;2024-01-25T06:37:03;2.20;;;1.05;;
22531;SDS011;11432;46.924;7.114;2024-01-25T06:39:29;2.20;;;1.30;;
22531;SDS011;11432;46.924;7.114;2024-01-25T06:41:54;4.47;;;1.85;;
22531;SDS011;11432;46.924;7.114;2024-01-25T06:44:20;2.67;;;1.35;;
22531;SDS011;11432;46.924;7.114;2024-01-25T06:46:45;3.45;;;1.95;;
22531;SDS011;11432;46.924;7.114;2024-01-25T06:49:11;5.47;;;2.00;;
22531;SDS011;11432;46.924;7.114;2024-01-25T06:51:37;6.03;;;1.92;;
22531;SDS011;11432;46.924;7.114;2024-01-25T06:54:02;3.47;;;1.75;;
22531;SDS011;11432;46.924;7.114;2024-01-25T06:56:28;4.43;;;1.90;;
22531;SDS011;11432;46.924;7.114;2024-01-25T06:58:55;2.10;;;1.23;;
22531;SDS011;11432;46.924;7.114;2024-01-25T07:01:20;2.45;;;1.10;;
22531;SDS011;11432;46.924;7.114;2024-01-25T07:03:47;1.83;;;0.70;;
22531;SDS011;11432;46.924;7.114;2024-01-25T07:06:13;3.25;;;1.75;;
22531;SDS011;11432;46.924;7.114;2024-01-25T07:08:38;2.53;;;1.40;;
22531;SDS011;11432;46.924;7.114;2024-01-25T07:11:04;3.92;;;1.38;;
22531;SDS011;11432;46.924;7.114;2024-01-25T07:13:29;2.53;;;1.40;;
22531;SDS011;11432;46.924;7.114;2024-01-25T07:15:55;3.15;;;1.38;;
22531;SDS011;11432;46.924;7.114;2024-01-25T07:18:20;5.50;;;2.03;;
22531;SDS011;11432;46.924;7.114;2024-01-25T07:20:47;4.38;;;1.80;;
22531;SDS011;11432;46.924;7.114;2024-01-25T07:23:13;3.33;;;1.65;;
22531;SDS011;11432;46.924;7.114;2024-01-25T07:25:38;3.47;;;1.55;;
22531;SDS011;11432;46.924;7.114;2024-01-25T07:28:04;1.60;;;1.17;;
22531;SDS011;11432;46.924;7.114;2024-01-25T07:30:30;2.17;;;1.10;;
22531;SDS011;11432;46.924;7.114;2024-01-25T07:32:55;1.85;;;1.10;;
22531;SDS011;11432;46.924;7.114;2024-01-25T07:35:21;3.65;;;1.20;;
22531;SDS011;11432;46.924;7.114;2024-01-25T07:37:48;3.85;;;2.25;;
22531;SDS011;11432;46.924;7.114;2024-01-25T07:40:13;5.78;;;2.55;;
22531;SDS011;11432;46.924;7.114;2024-01-25T07:42:39;4.60;;;1.90;;
22531;SDS011;11432;46.924;7.114;2024-01-25T07:45:05;5.55;;;1.70;;
22531;SDS011;11432;46.924;7.114;2024-01-25T07:47:31;2.85;;;0.85;;
22531;SDS011;11432;46.924;7.114;2024-01-25T07:49:57;1.38;;;1.00;;
22531;SDS011;11432;46.924;7.114;2024-01-25T07:52:22;1.80;;;1.10;;
22531;SDS011;11432;46.924;7.114;2024-01-25T07:54:48;1.58;;;1.00;;
22531;SDS011;11432;46.924;7.114;2024-01-25T07:57:13;3.60;;;1.00;;
22531;SDS011;11432;46.924;7.114;2024-01-25T07:59:39;2.88;;;0.90;;
22531;SDS011;11432;46.924;7.114;2024-01-25T08:02:05;2.95;;;0.80;;
22531;SDS011;11432;46.924;7.114;2024-01-25T08:04:31;1.92;;;1.17;;
22531;SDS011;11432;46.924;7.114;2024-01-25T08:06:56;3.47;;;1.20;;
22531;SDS011;11432;46.924;7.114;2024-01-25T08:09:23;2.03;;;1.00;;
22531;SDS011;11432;46.924;7.114;2024-01-25T08:11:49;2.15;;;1.08;;
22531;SDS011;11432;46.924;7.114;2024-01-25T08:14:16;1.80;;;0.95;;
22531;SDS011;11432;46.924;7.114;2024-01-25T08:16:42;2.90;;;0.93;;
22531;SDS011;11432;46.924;7.114;2024-01-25T08:19:08;1.40;;;0.90;;
22531;SDS011;11432;46.924;7.114;2024-01-25T08:21:33;0.90;;;0.50;;
22531;SDS011;11432;46.924;7.114;2024-01-25T08:24:00;3.25;;;1.30;;
22531;SDS011;11432;46.924;7.114;2024-01-25T08:26:27;3.28;;;1.23;;
22531;SDS011;11432;46.924;7.114;2024-01-25T08:28:52;3.97;;;1.52;;
22531;SDS011;11432;46.924;7.114;2024-01-25T08:31:18;4.45;;;1.30;;
22531;SDS011;11432;46.924;7.114;2024-01-25T08:33:43;1.80;;;0.80;;
22531;SDS011;11432;46.924;7.114;2024-01-25T08:36:12;1.77;;;0.60;;
22531;SDS011;11432;46.924;7.114;2024-01-25T08:38:38;1.20;;;0.50;;
22531;SDS011;11432;46.924;7.114;2024-01-25T08:41:04;1.67;;;0.63;;
22531;SDS011;11432;46.924;7.114;2024-01-25T08:43:30;0.68;;;0.50;;
22531;SDS011;11432;46.924;7.114;2024-01-25T08:45:55;2.35;;;0.60;;
22531;SDS011;11432;46.924;7.114;2024-01-25T08:48:21;1.08;;;0.40;;
22531;SDS011;11432;46.924;7.114;2024-01-25T08:50:46;2.45;;;0.57;;
22531;SDS011;11432;46.924;7.114;2024-01-25T08:53:18;1.52;;;0.50;;
22531;SDS011;11432;46.924;7.114;2024-01-25T08:55:46;1.10;;;0.50;;
22531;SDS011;11432;46.924;7.114;2024-01-25T08:58:11;1.35;;;0.73;;
22531;SDS011;11432;46.924;7.114;2024-01-25T09:00:37;1.27;;;0.63;;
22531;SDS011;11432;46.924;7.114;2024-01-25T09:03:03;0.95;;;0.60;;
22531;SDS011;11432;46.924;7.114;2024-01-25T09:05:28;2.67;;;0.77;;
22531;SDS011;11432;46.924;7.114;2024-01-25T09:07:54;1.95;;;0.70;;
22531;SDS011;11432;46.924;7.114;2024-01-25T09:10:20;1.75;;;0.90;;
22531;SDS011;11432;46.924;7.114;2024-01-25T09:12:45;1.30;;;0.90;;
22531;SDS011;11432;46.924;7.114;2024-01-25T09:15:11;2.90;;;0.93;;
22531;SDS011;11432;46.924;7.114;2024-01-25T09:17:36;0.88;;;0.60;;
22531;SDS011;11432;46.924;7.114;2024-01-25T09:20:02;1.00;;;0.65;;
22531;SDS011;11432;46.924;7.114;2024-01-25T09:22:28;2.95;;;1.00;;
22531;SDS011;11432;46.924;7.114;2024-01-25T09:24:53;1.98;;;0.80;;
22531;SDS011;11432;46.924;7.114;2024-01-25T09:27:19;4.20;;;1.05;;
22531;SDS011;11432;46.924;7.114;2024-01-25T09:29:45;3.15;;;1.42;;
22531;SDS011;11432;46.924;7.114;2024-01-25T09:32:10;0.88;;;0.60;;
22531;SDS011;11432;46.924;7.114;2024-01-25T09:34:36;4.93;;;1.88;;
22531;SDS011;11432;46.924;7.114;2024-01-25T09:37:03;1.55;;;0.60;;
22531;SDS011;11432;46.924;7.114;2024-01-25T09:39:30;1.13;;;0.60;;
22531;SDS011;11432;46.924;7.114;2024-01-25T09:41:56;1.65;;;0.80;;
22531;SDS011;11432;46.924;7.114;2024-01-25T09:45:35;2.83;;;0.80;;
22531;SDS011;11432;46.924;7.114;2024-01-25T09:48:01;2.70;;;1.23;;
22531;SDS011;11432;46.924;7.114;2024-01-25T09:50:29;2.13;;;0.70;;
22531;SDS011;11432;46.924;7.114;2024-01-25T09:52:59;2.50;;;0.60;;
22531;SDS011;11432;46.924;7.114;2024-01-25T09:55:25;2.08;;;0.70;;
22531;SDS011;11432;46.924;7.114;2024-01-25T09:58:39;0.80;;;0.50;;
22531;SDS011;11432;46.924;7.114;2024-01-25T10:01:10;1.52;;;0.50;;
22531;SDS011;11432;46.924;7.114;2024-01-25T10:03:43;0.85;;;0.50;;
22531;SDS011;11432;46.924;7.114;2024-01-25T10:06:11;0.93;;;0.45;;
22531;SDS011;11432;46.924;7.114;2024-01-25T10:08:37;1.27;;;0.50;;
22531;SDS011;11432;46.924;7.114;2024-01-25T10:11:03;2.13;;;0.60;;
22531;SDS011;11432;46.924;7.114;2024-01-25T10:13:29;1.52;;;0.50;;
22531;SDS011;11432;46.924;7.114;2024-01-25T10:15:55;3.63;;;0.57;;
22531;SDS011;11432;46.924;7.114;2024-01-25T10:18:25;0.80;;;0.50;;
22531;SDS011;11432;46.924;7.114;2024-01-25T10:20:52;1.85;;;0.40;;
22531;SDS011;11432;46.924;7.114;2024-01-25T10:23:19;0.80;;;0.50;;
22531;SDS011;11432;46.924;7.114;2024-01-25T10:25:45;1.98;;;0.65;;
22531;SDS011;11432;46.924;7.114;2024-01-25T10:28:10;2.08;;;0.47;;
22531;SDS011;11432;46.924;7.114;2024-01-25T10:30:37;1.95;;;0.65;;
22531;SDS011;11432;46.924;7.114;2024-01-25T10:33:03;1.90;;;0.50;;
22531;SDS011;11432;46.924;7.114;2024-01-25T10:35:30;0.60;;;0.47;;
22531;SDS011;11432;46.924;7.114;2024-01-25T10:37:56;0.30;;;0.30;;
22531;SDS011;11432;46.924;7.114;2024-01-25T10:40:23;1.77;;;0.40;;
22531;SDS011;11432;46.924;7.114;2024-01-25T10:42:49;0.60;;;0.38;;
22531;SDS011;11432;46.924;7.114;2024-01-25T10:45:15;1.73;;;0.40;;
22531;SDS011;11432;46.924;7.114;2024-01-25T10:47:41;0.57;;;0.30;;
22531;SDS011;11432;46.924;7.114;2024-01-25T10:50:07;0.77;;;0.32;;
22531;SDS011;11432;46.924;7.114;2024-01-25T10:55:02;0.45;;;0.30;;
22531;SDS011;11432;46.924;7.114;2024-01-25T10:57:39;0.35;;;0.20;;
22531;SDS011;11432;46.924;7.114;2024-01-25T11:00:11;0.75;;;0.38;;
22531;SDS011;11432;46.924;7.114;2024-01-25T11:02:39;0.40;;;0.20;;
22531;SDS011;11432;46.924;7.114;2024-01-25T11:05:15;0.20;;;0.20;;
22531;SDS011;11432;46.924;7.114;2024-01-25T11:07:45;0.63;;;0.30;;
22531;SDS011;11432;46.924;7.114;2024-01-25T11:10:13;0.50;;;0.30;;
22531;SDS011;11432;46.924;7.114;2024-01-25T11:15:22;0.40;;;0.20;;
22531;SDS011;11432;46.924;7.114;2024-01-25T11:17:55;0.30;;;0.10;;
22531;SDS011;11432;46.924;7.114;2024-01-25T11:20:22;0.10;;;0.10;;
22531;SDS011;11432;46.924;7.114;2024-01-25T11:23:02;0.20;;;0.20;;
22531;SDS011;11432;46.924;7.114;2024-01-25T11:25:33;0.10;;;0.10;;
22531;SDS011;11432;46.924;7.114;2024-01-25T11:28:00;0.30;;;0.20;;
22531;SDS011;11432;46.924;7.114;2024-01-25T11:30:28;0.30;;;0.10;;
22531;SDS011;11432;46.924;7.114;2024-01-25T11:32:55;0.10;;;0.10;;
22531;SDS011;11432;46.924;7.114;2024-01-25T11:35:21;0.13;;;0.08;;
22531;SDS011;11432;46.924;7.114;2024-01-25T11:37:47;0.10;;;0.10;;
22531;SDS011;11432;46.924;7.114;2024-01-25T11:40:14;0.10;;;0.10;;
22531;SDS011;11432;46.924;7.114;2024-01-25T11:42:47;0.45;;;0.00;;
22531;SDS011;11432;46.924;7.114;2024-01-25T11:45:14;0.00;;;0.00;;
22531;SDS011;11432;46.924;7.114;2024-01-25T11:47:40;0.20;;;0.00;;
22531;SDS011;11432;46.924;7.114;2024-01-25T11:50:07;0.38;;;0.10;;
22531;SDS011;11432;46.924;7.114;2024-01-25T11:52:34;0.08;;;0.03;;
22531;SDS011;11432;46.924;7.114;2024-01-25T11:55:03;0.10;;;0.10;;
22531;SDS011;11432;46.924;7.114;2024-01-25T11:57:51;0.00;;;0.00;;
22531;SDS011;11432;46.924;7.114;2024-01-25T12:00:16;0.10;;;0.03;;
22531;SDS011;11432;46.924;7.114;2024-01-25T12:02:43;0.30;;;0.20;;
22531;SDS011;11432;46.924;7.114;2024-01-25T12:05:09;0.10;;;0.10;;
22531;SDS011;11432;46.924;7.114;2024-01-25T12:07:36;2.50;;;0.10;;
22531;SDS011;11432;46.924;7.114;2024-01-25T12:10:05;0.47;;;0.10;;
22531;SDS011;11432;46.924;7.114;2024-01-25T12:12:32;0.10;;;0.10;;
22531;SDS011;11432;46.924;7.114;2024-01-25T12:15:07;0.20;;;0.05;;
22531;SDS011;11432;46.924;7.114;2024-01-25T12:17:33;0.10;;;0.10;;
22531;SDS011;11432;46.924;7.114;2024-01-25T12:20:01;0.10;;;0.10;;
22531;SDS011;11432;46.924;7.114;2024-01-25T12:22:27;2.95;;;0.13;;
22531;SDS011;11432;46.924;7.114;2024-01-25T12:24:54;1.58;;;0.30;;
22531;SDS011;11432;46.924;7.114;2024-01-25T12:27:24;1.38;;;0.00;;
22531;SDS011;11432;46.924;7.114;2024-01-25T12:29:51;0.20;;;0.10;;
22531;SDS011;11432;46.924;7.114;2024-01-25T12:32:20;0.10;;;0.03;;
22531;SDS011;11432;46.924;7.114;2024-01-25T12:34:53;0.35;;;0.00;;
22531;SDS011;11432;46.924;7.114;2024-01-25T12:37:22;1.35;;;0.10;;
22531;SDS011;11432;46.924;7.114;2024-01-25T12:39:48;0.73;;;0.20;;
22531;SDS011;11432;46.924;7.114;2024-01-25T12:42:18;0.20;;;0.10;;
22531;SDS011;11432;46.924;7.114;2024-01-25T12:44:47;0.98;;;0.00;;
22531;SDS011;11432;46.924;7.114;2024-01-25T12:47:13;0.00;;;0.00;;
22531;SDS011;11432;46.924;7.114;2024-01-25T12:49:40;0.05;;;0.05;;
22531;SDS011;11432;46.924;7.114;2024-01-25T12:52:07;0.00;;;0.00;;
22531;SDS011;11432;46.924;7.114;2024-01-25T12:54:37;0.00;;;0.00;;
22531;SDS011;11432;46.924;7.114;2024-01-25T12:57:03;0.45;;;0.10;;
22531;SDS011;11432;46.924;7.114;2024-01-25T12:59:30;0.10;;;0.10;;
22531;SDS011;11432;46.924;7.114;2024-01-25T13:01:56;0.20;;;0.10;;
22531;SDS011;11432;46.924;7.114;2024-01-25T13:04:22;1.35;;;0.00;;
22531;SDS011;11432;46.924;7.114;2024-01-25T13:06:48;0.00;;;0.00;;
22531;SDS011;11432;46.924;7.114;2024-01-25T13:09:14;0.20;;;0.10;;
22531;SDS011;11432;46.924;7.114;2024-01-25T13:11:41;0.20;;;0.10;;
22531;SDS011;11432;46.924;7.114;2024-01-25T13:14:07;0.08;;;0.00;;
22531;SDS011;11432;46.924;7.114;2024-01-25T13:16:32;0.10;;;0.10;;
22531;SDS011;11432;46.924;7.114;2024-01-25T13:18:58;0.30;;;0.10;;
22531;SDS011;11432;46.924;7.114;2024-01-25T13:21:24;0.00;;;0.00;;
22531;SDS011;11432;46.924;7.114;2024-01-25T13:23:49;0.00;;;0.00;;
22531;SDS011;11432;46.924;7.114;2024-01-25T13:26:15;0.20;;;0.08;;
22531;SDS011;11432;46.924;7.114;2024-01-25T13:28:41;0.43;;;0.10;;
22531;SDS011;11432;46.924;7.114;2024-01-25T13:31:06;0.10;;;0.10;;
22531;SDS011;11432;46.924;7.114;2024-01-25T13:33:32;0.20;;;0.20;;
22531;SDS011;11432;46.924;7.114;2024-01-25T13:35:58;0.00;;;0.00;;
22531;SDS011;11432;46.924;7.114;2024-01-25T13:38:23;0.17;;;0.05;;
22531;SDS011;11432;46.924;7.114;2024-01-25T13:40:49;0.10;;;0.10;;
22531;SDS011;11432;46.924;7.114;2024-01-25T13:43:15;0.10;;;0.00;;
22531;SDS011;11432;46.924;7.114;2024-01-25T13:45:41;3.75;;;1.95;;
22531;SDS011;11432;46.924;7.114;2024-01-25T13:48:07;2.05;;;0.10;;
22531;SDS011;11432;46.924;7.114;2024-01-25T13:50:32;0.20;;;0.10;;
22531;SDS011;11432;46.924;7.114;2024-01-25T13:52:58;0.10;;;0.10;;
22531;SDS011;11432;46.924;7.114;2024-01-25T13:55:24;0.40;;;0.08;;
22531;SDS011;11432;46.924;7.114;2024-01-25T13:57:49;0.20;;;0.10;;
22531;SDS011;11432;46.924;7.114;2024-01-25T14:00:15;0.10;;;0.10;;
22531;SDS011;11432;46.924;7.114;2024-01-25T14:02:41;0.65;;;0.10;;
22531;SDS011;11432;46.924;7.114;2024-01-25T14:05:10;0.15;;;0.10;;
22531;SDS011;11432;46.924;7.114;2024-01-25T14:07:36;0.20;;;0.10;;
22531;SDS011;11432;46.924;7.114;2024-01-25T14:10:02;0.00;;;0.00;;
22531;SDS011;11432;46.924;7.114;2024-01-25T14:12:28;0.15;;;0.10;;
22531;SDS011;11432;46.924;7.114;2024-01-25T14:14:54;0.00;;;0.00;;
22531;SDS011;11432;46.924;7.114;2024-01-25T14:17:19;0.13;;;0.10;;
22531;SDS011;11432;46.924;7.114;2024-01-25T14:19:46;0.15;;;0.05;;
22531;SDS011;11432;46.924;7.114;2024-01-25T14:22:12;0.05;;;0.05;;
22531;SDS011;11432;46.924;7.114;2024-01-25T14:24:38;1.40;;;0.10;;
22531;SDS011;11432;46.924;7.114;2024-01-25T14:27:03;1.48;;;0.10;;
22531;SDS011;11432;46.924;7.114;2024-01-25T14:29:29;0.20;;;0.10;;
22531;SDS011;11432;46.924;7.114;2024-01-25T14:31:57;0.25;;;0.10;;
22531;SDS011;11432;46.924;7.114;2024-01-25T14:34:23;0.65;;;0.10;;
22531;SDS011;11432;46.924;7.114;2024-01-25T14:36:49;0.30;;;0.10;;
22531;SDS011;11432;46.924;7.114;2024-01-25T14:39:16;0.10;;;0.10;;
22531;SDS011;11432;46.924;7.114;2024-01-25T14:41:45;0.10;;;0.08;;
22531;SDS011;11432;46.924;7.114;2024-01-25T14:44:11;0.20;;;0.10;;
22531;SDS011;11432;46.924;7.114;2024-01-25T14:46:36;1.10;;;0.10;;
22531;SDS011;11432;46.924;7.114;2024-01-25T14:49:02;0.60;;;0.20;;
22531;SDS011;11432;46.924;7.114;2024-01-25T14:51:28;0.25;;;0.10;;